sensor_id;sensor_type;location;lat;lon;timestamp;pressure;altitude;pressure_sealevel;temperature;humidity
63582;BME280;49727;51.078;17.066;2022-08-01T00:06:45;99917.47;;;15.94;66.03
63582;BME280;49727;51.078;17.066;2022-08-01T00:21:46;99912.78;;;15.62;67.36
63582;BME280;49727;51.078;17.066;2022-08-01T00:36:46;99912.63;;;15.44;67.97
63582;BME280;49727;51.078;17.066;2022-08-01T00:51:47;99893.63;;;15.45;68.52
63582;BME280;49727;51.078;17.066;2022-08-01T01:07:06;99890.91;;;15.52;69.07
63582;BME280;49727;51.078;17.066;2022-08-01T01:22:27;99892.34;;;15.54;68.60
63582;BME280;49727;51.078;17.066;2022-08-01T01:37:31;99888.22;;;15.59;69.36
63582;BME280;49727;51.078;17.066;2022-08-01T01:52:33;99865.63;;;15.86;69.16
63582;BME280;49727;51.078;17.066;2022-08-01T02:07:34;99865.47;;;15.68;68.52
63582;BME280;49727;51.078;17.066;2022-08-01T02:22:53;99873.81;;;15.33;69.54
63582;BME280;49727;51.078;17.066;2022-08-01T02:37:57;99870.75;;;14.96;69.98
63582;BME280;49727;51.078;17.066;2022-08-01T02:52:58;99862.72;;;14.76;70.60
63582;BME280;49727;51.078;17.066;2022-08-01T03:08:00;99857.78;;;14.79;71.14
63582;BME280;49727;51.078;17.066;2022-08-01T03:23:08;99865.41;;;14.96;71.20
63582;BME280;49727;51.078;17.066;2022-08-01T03:38:10;99863.94;;;15.13;71.04
63582;BME280;49727;51.078;17.066;2022-08-01T03:53:13;99868.44;;;15.39;70.83
63582;BME280;49727;51.078;17.066;2022-08-01T04:08:14;99881.59;;;15.61;70.62
63582;BME280;49727;51.078;17.066;2022-08-01T04:23:23;99884.31;;;15.54;70.57
63582;BME280;49727;51.078;17.066;2022-08-01T04:38:26;99869.63;;;15.64;70.64
63582;BME280;49727;51.078;17.066;2022-08-01T04:53:27;99875.78;;;15.71;70.93
63582;BME280;49727;51.078;17.066;2022-08-01T05:08:28;99882.75;;;15.79;70.96
63582;BME280;49727;51.078;17.066;2022-08-01T05:23:28;99882.38;;;15.88;70.71
63582;BME280;49727;51.078;17.066;2022-08-01T05:38:29;99876.28;;;16.13;71.15
63582;BME280;49727;51.078;17.066;2022-08-01T05:53:29;99882.94;;;16.36;71.74
63582;BME280;49727;51.078;17.066;2022-08-01T06:08:30;99881.81;;;16.82;72.00
63582;BME280;49727;51.078;17.066;2022-08-01T06:23:31;99889.63;;;17.59;71.46
63582;BME280;49727;51.078;17.066;2022-08-01T06:38:32;99892.72;;;18.61;71.04
63582;BME280;49727;51.078;17.066;2022-08-01T06:53:33;99885.66;;;19.61;68.87
63582;BME280;49727;51.078;17.066;2022-08-01T07:08:33;99895.22;;;20.96;66.69
63582;BME280;49727;51.078;17.066;2022-08-01T07:23:34;99891.72;;;22.41;62.41
63582;BME280;49727;51.078;17.066;2022-08-01T07:38:34;99900.63;;;23.28;59.42
63582;BME280;49727;51.078;17.066;2022-08-01T07:53:35;99904.28;;;24.03;56.60
63582;BME280;49727;51.078;17.066;2022-08-01T08:08:35;99910.97;;;25.20;53.05
63582;BME280;49727;51.078;17.066;2022-08-01T08:23:35;99920.59;;;26.09;49.57
63582;BME280;49727;51.078;17.066;2022-08-01T08:38:54;99926.75;;;26.75;47.01
63582;BME280;49727;51.078;17.066;2022-08-01T08:53:56;99947.31;;;26.12;45.80
63582;BME280;49727;51.078;17.066;2022-08-01T09:08:57;99954.31;;;25.58;47.52
63582;BME280;49727;51.078;17.066;2022-08-01T09:23:58;99949.31;;;27.25;44.62
63582;BME280;49727;51.078;17.066;2022-08-01T09:39:12;99942.47;;;28.68;42.93
63582;BME280;49727;51.078;17.066;2022-08-01T09:54:27;99948.78;;;31.05;38.22
63582;BME280;49727;51.078;17.066;2022-08-01T10:09:37;99937.19;;;32.72;35.93
63582;BME280;49727;51.078;17.066;2022-08-01T10:24:38;99929.22;;;33.45;33.27
63582;BME280;49727;51.078;17.066;2022-08-01T10:39:39;99933.13;;;33.44;32.29
63582;BME280;49727;51.078;17.066;2022-08-01T10:54:40;99925.75;;;32.13;34.03
63582;BME280;49727;51.078;17.066;2022-08-01T11:09:43;99919.25;;;32.09;34.26
63582;BME280;49727;51.078;17.066;2022-08-01T11:40:17;99916.56;;;30.83;37.33
63582;BME280;49727;51.078;17.066;2022-08-01T11:55:18;99929.06;;;30.66;36.87
63582;BME280;49727;51.078;17.066;2022-08-01T12:10:20;99915.31;;;30.66;36.42
63582;BME280;49727;51.078;17.066;2022-08-01T12:25:21;99907.19;;;31.38;35.99
63582;BME280;49727;51.078;17.066;2022-08-01T12:40:30;99902.56;;;31.16;35.33
63582;BME280;49727;51.078;17.066;2022-08-01T12:55:30;99903.25;;;31.30;35.76
63582;BME280;49727;51.078;17.066;2022-08-01T13:10:31;99911.34;;;30.22;36.67
63582;BME280;49727;51.078;17.066;2022-08-01T13:25:31;99904.22;;;30.35;37.51
63582;BME280;49727;51.078;17.066;2022-08-01T13:40:32;99911.69;;;30.57;37.83
63582;BME280;49727;51.078;17.066;2022-08-01T13:55:32;99903.81;;;31.10;37.22
63582;BME280;49727;51.078;17.066;2022-08-01T14:10:32;99914.44;;;31.02;36.26
63582;BME280;49727;51.078;17.066;2022-08-01T14:25:33;99927.91;;;29.94;36.91
63582;BME280;49727;51.078;17.066;2022-08-01T14:40:34;99919.75;;;29.89;37.95
63582;BME280;49727;51.078;17.066;2022-08-01T14:55:35;99930.84;;;29.23;39.15
63582;BME280;49727;51.078;17.066;2022-08-01T15:10:35;99927.00;;;29.24;39.39
63582;BME280;49727;51.078;17.066;2022-08-01T15:25:36;99919.84;;;28.57;40.75
63582;BME280;49727;51.078;17.066;2022-08-01T15:40:36;99934.78;;;28.46;40.43
63582;BME280;49727;51.078;17.066;2022-08-01T15:55:38;99964.50;;;27.42;43.03
63582;BME280;49727;51.078;17.066;2022-08-01T16:10:38;99988.88;;;25.83;46.42
63582;BME280;49727;51.078;17.066;2022-08-01T16:25:39;99986.78;;;25.33;48.11
63582;BME280;49727;51.078;17.066;2022-08-01T16:40:40;100000.13;;;25.40;47.77
63582;BME280;49727;51.078;17.066;2022-08-01T16:55:40;100006.88;;;24.76;49.02
63582;BME280;49727;51.078;17.066;2022-08-01T17:10:40;100010.78;;;23.79;51.41
63582;BME280;49727;51.078;17.066;2022-08-01T17:25:40;100022.59;;;23.20;53.72
63582;BME280;49727;51.078;17.066;2022-08-01T17:40:41;100053.09;;;22.77;55.13
63582;BME280;49727;51.078;17.066;2022-08-01T17:55:41;100074.63;;;22.40;57.23
63582;BME280;49727;51.078;17.066;2022-08-01T18:10:42;100090.88;;;22.01;59.06
63582;BME280;49727;51.078;17.066;2022-08-01T18:25:42;100094.25;;;21.57;61.39
63582;BME280;49727;51.078;17.066;2022-08-01T18:40:42;100098.13;;;21.15;63.44
63582;BME280;49727;51.078;17.066;2022-08-01T18:55:43;100110.09;;;21.19;65.86
63582;BME280;49727;51.078;17.066;2022-08-01T19:10:43;100140.69;;;21.32;66.16
63582;BME280;49727;51.078;17.066;2022-08-01T19:25:44;100163.63;;;21.41;66.52
63582;BME280;49727;51.078;17.066;2022-08-01T19:40:44;100177.69;;;20.73;67.04
63582;BME280;49727;51.078;17.066;2022-08-01T19:55:45;100178.66;;;20.32;69.00
63582;BME280;49727;51.078;17.066;2022-08-01T20:10:46;100182.75;;;20.46;69.76
63582;BME280;49727;51.078;17.066;2022-08-01T20:25:48;100203.16;;;21.13;68.94
63582;BME280;49727;51.078;17.066;2022-08-01T20:40:51;100207.44;;;20.97;68.56
63582;BME280;49727;51.078;17.066;2022-08-01T20:55:59;100203.47;;;20.64;68.65
63582;BME280;49727;51.078;17.066;2022-08-01T21:11:02;100202.16;;;20.19;69.32
63582;BME280;49727;51.078;17.066;2022-08-01T21:26:02;100199.88;;;19.92;70.29
63582;BME280;49727;51.078;17.066;2022-08-01T21:41:06;100206.28;;;19.79;71.04
63582;BME280;49727;51.078;17.066;2022-08-01T21:56:12;100218.63;;;19.75;71.18
63582;BME280;49727;51.078;17.066;2022-08-01T22:11:22;100233.88;;;19.70;71.40
63582;BME280;49727;51.078;17.066;2022-08-01T22:26:24;100221.91;;;19.47;71.79
63582;BME280;49727;51.078;17.066;2022-08-01T22:41:29;100235.75;;;19.20;72.33
63582;BME280;49727;51.078;17.066;2022-08-01T22:56:34;100241.16;;;19.20;73.14
63582;BME280;49727;51.078;17.066;2022-08-01T23:11:37;100248.22;;;19.21;72.90
63582;BME280;49727;51.078;17.066;2022-08-01T23:26:37;100250.69;;;19.23;72.90
63582;BME280;49727;51.078;17.066;2022-08-01T23:41:39;100261.03;;;19.07;73.06
63582;BME280;49727;51.078;17.066;2022-08-01T23:56:39;100270.78;;;19.08;73.15
